sensor_id;sensor_type;location;lat;lon;timestamp;P1;durP1;ratioP1;P2;durP2;ratioP2
17670;SDS011;8954;48.694;8.940;2023-01-26T00:02:04;12.23;;;11.50;;
17670;SDS011;8954;48.694;8.940;2023-01-26T00:04:30;11.93;;;11.07;;
17670;SDS011;8954;48.694;8.940;2023-01-26T00:06:55;12.00;;;11.27;;
17670;SDS011;8954;48.694;8.940;2023-01-26T00:09:21;11.57;;;10.97;;
17670;SDS011;8954;48.694;8.940;2023-01-26T00:11:46;11.47;;;10.80;;
17670;SDS011;8954;48.694;8.940;2023-01-26T00:14:12;11.63;;;10.93;;
17670;SDS011;8954;48.694;8.940;2023-01-26T00:16:37;11.63;;;10.90;;
17670;SDS011;8954;48.694;8.940;2023-01-26T00:19:03;11.80;;;11.07;;
17670;SDS011;8954;48.694;8.940;2023-01-26T00:21:29;11.60;;;10.93;;
17670;SDS011;8954;48.694;8.940;2023-01-26T00:23:54;11.93;;;11.20;;
17670;SDS011;8954;48.694;8.940;2023-01-26T00:26:23;13.23;;;12.40;;
17670;SDS011;8954;48.694;8.940;2023-01-26T00:28:50;13.43;;;12.60;;
17670;SDS011;8954;48.694;8.940;2023-01-26T00:31:17;12.47;;;11.70;;
17670;SDS011;8954;48.694;8.940;2023-01-26T00:33:45;12.33;;;11.57;;
17670;SDS011;8954;48.694;8.940;2023-01-26T00:36:11;11.77;;;11.07;;
17670;SDS011;8954;48.694;8.940;2023-01-26T00:38:37;11.10;;;10.43;;
17670;SDS011;8954;48.694;8.940;2023-01-26T00:41:03;11.03;;;10.43;;
17670;SDS011;8954;48.694;8.940;2023-01-26T00:43:30;11.40;;;10.57;;
17670;SDS011;8954;48.694;8.940;2023-01-26T00:45:55;10.60;;;9.90;;
17670;SDS011;8954;48.694;8.940;2023-01-26T00:48:21;10.97;;;10.37;;
17670;SDS011;8954;48.694;8.940;2023-01-26T00:50:48;10.03;;;9.43;;
17670;SDS011;8954;48.694;8.940;2023-01-26T00:53:14;10.57;;;9.97;;
17670;SDS011;8954;48.694;8.940;2023-01-26T00:55:41;10.63;;;10.03;;
17670;SDS011;8954;48.694;8.940;2023-01-26T00:58:07;10.90;;;10.27;;
17670;SDS011;8954;48.694;8.940;2023-01-26T01:00:33;11.37;;;10.70;;
17670;SDS011;8954;48.694;8.940;2023-01-26T01:03:01;11.13;;;10.50;;
17670;SDS011;8954;48.694;8.940;2023-01-26T01:05:28;11.07;;;10.37;;
17670;SDS011;8954;48.694;8.940;2023-01-26T01:07:55;10.67;;;10.07;;
17670;SDS011;8954;48.694;8.940;2023-01-26T01:10:21;10.87;;;10.27;;
17670;SDS011;8954;48.694;8.940;2023-01-26T01:12:48;11.20;;;10.53;;
17670;SDS011;8954;48.694;8.940;2023-01-26T01:15:13;11.63;;;10.90;;
17670;SDS011;8954;48.694;8.940;2023-01-26T01:17:39;11.50;;;10.80;;
17670;SDS011;8954;48.694;8.940;2023-01-26T01:20:05;11.87;;;11.17;;
17670;SDS011;8954;48.694;8.940;2023-01-26T01:22:32;11.70;;;11.03;;
17670;SDS011;8954;48.694;8.940;2023-01-26T01:24:58;11.13;;;10.50;;
17670;SDS011;8954;48.694;8.940;2023-01-26T01:27:24;10.97;;;10.33;;
17670;SDS011;8954;48.694;8.940;2023-01-26T01:29:50;10.27;;;9.70;;
17670;SDS011;8954;48.694;8.940;2023-01-26T01:32:16;10.27;;;9.70;;
17670;SDS011;8954;48.694;8.940;2023-01-26T01:34:41;10.67;;;10.07;;
17670;SDS011;8954;48.694;8.940;2023-01-26T01:37:07;10.17;;;9.60;;
17670;SDS011;8954;48.694;8.940;2023-01-26T01:39:33;10.43;;;9.83;;
17670;SDS011;8954;48.694;8.940;2023-01-26T01:41:58;10.83;;;10.23;;
17670;SDS011;8954;48.694;8.940;2023-01-26T01:44:24;10.03;;;9.53;;
17670;SDS011;8954;48.694;8.940;2023-01-26T01:49:28;10.90;;;10.27;;
17670;SDS011;8954;48.694;8.940;2023-01-26T01:54:31;11.23;;;10.63;;
17670;SDS011;8954;48.694;8.940;2023-01-26T01:57:05;11.20;;;10.53;;
17670;SDS011;8954;48.694;8.940;2023-01-26T01:59:39;10.53;;;9.93;;
17670;SDS011;8954;48.694;8.940;2023-01-26T02:02:09;9.70;;;9.20;;
17670;SDS011;8954;48.694;8.940;2023-01-26T02:04:35;10.47;;;9.87;;
17670;SDS011;8954;48.694;8.940;2023-01-26T02:07:01;10.50;;;9.83;;
17670;SDS011;8954;48.694;8.940;2023-01-26T02:09:30;10.57;;;9.97;;
17670;SDS011;8954;48.694;8.940;2023-01-26T02:12:17;10.30;;;9.70;;
17670;SDS011;8954;48.694;8.940;2023-01-26T02:14:45;10.70;;;10.10;;
17670;SDS011;8954;48.694;8.940;2023-01-26T02:17:11;10.70;;;10.03;;
17670;SDS011;8954;48.694;8.940;2023-01-26T02:19:44;10.20;;;9.60;;
17670;SDS011;8954;48.694;8.940;2023-01-26T02:22:31;10.07;;;9.40;;
17670;SDS011;8954;48.694;8.940;2023-01-26T02:25:07;10.30;;;9.70;;
17670;SDS011;8954;48.694;8.940;2023-01-26T02:27:59;10.60;;;10.00;;
17670;SDS011;8954;48.694;8.940;2023-01-26T02:30:25;11.00;;;10.33;;
17670;SDS011;8954;48.694;8.940;2023-01-26T02:32:52;11.00;;;10.37;;
17670;SDS011;8954;48.694;8.940;2023-01-26T02:35:18;10.83;;;10.20;;
17670;SDS011;8954;48.694;8.940;2023-01-26T02:37:43;10.70;;;10.10;;
17670;SDS011;8954;48.694;8.940;2023-01-26T02:40:15;11.40;;;10.73;;
17670;SDS011;8954;48.694;8.940;2023-01-26T02:42:45;11.27;;;10.67;;
17670;SDS011;8954;48.694;8.940;2023-01-26T02:45:14;10.37;;;9.80;;
17670;SDS011;8954;48.694;8.940;2023-01-26T02:47:41;11.33;;;10.70;;
17670;SDS011;8954;48.694;8.940;2023-01-26T02:50:08;11.53;;;10.83;;
17670;SDS011;8954;48.694;8.940;2023-01-26T02:52:34;11.43;;;10.80;;
17670;SDS011;8954;48.694;8.940;2023-01-26T02:55:01;11.17;;;10.57;;
17670;SDS011;8954;48.694;8.940;2023-01-26T02:57:45;11.87;;;11.17;;
17670;SDS011;8954;48.694;8.940;2023-01-26T03:00:12;11.63;;;10.97;;
17670;SDS011;8954;48.694;8.940;2023-01-26T03:02:40;11.20;;;10.53;;
17670;SDS011;8954;48.694;8.940;2023-01-26T03:05:06;11.40;;;10.67;;
17670;SDS011;8954;48.694;8.940;2023-01-26T03:07:32;11.17;;;10.50;;
17670;SDS011;8954;48.694;8.940;2023-01-26T03:09:57;10.93;;;10.33;;
17670;SDS011;8954;48.694;8.940;2023-01-26T03:12:24;11.43;;;10.73;;
17670;SDS011;8954;48.694;8.940;2023-01-26T03:14:50;11.20;;;10.57;;
17670;SDS011;8954;48.694;8.940;2023-01-26T03:17:34;12.33;;;11.57;;
17670;SDS011;8954;48.694;8.940;2023-01-26T03:20:00;11.60;;;10.93;;
17670;SDS011;8954;48.694;8.940;2023-01-26T03:22:45;11.47;;;10.73;;
17670;SDS011;8954;48.694;8.940;2023-01-26T03:25:29;11.07;;;10.40;;
17670;SDS011;8954;48.694;8.940;2023-01-26T03:28:13;11.37;;;10.73;;
17670;SDS011;8954;48.694;8.940;2023-01-26T03:30:38;11.60;;;10.93;;
17670;SDS011;8954;48.694;8.940;2023-01-26T03:33:04;11.17;;;10.53;;
17670;SDS011;8954;48.694;8.940;2023-01-26T03:35:29;10.67;;;10.10;;
17670;SDS011;8954;48.694;8.940;2023-01-26T03:37:56;10.57;;;10.03;;
17670;SDS011;8954;48.694;8.940;2023-01-26T03:40:22;10.90;;;10.30;;
17670;SDS011;8954;48.694;8.940;2023-01-26T03:43:07;11.70;;;11.03;;
17670;SDS011;8954;48.694;8.940;2023-01-26T03:45:52;11.47;;;10.77;;
17670;SDS011;8954;48.694;8.940;2023-01-26T03:48:36;12.10;;;11.40;;
17670;SDS011;8954;48.694;8.940;2023-01-26T03:51:20;12.93;;;12.13;;
17670;SDS011;8954;48.694;8.940;2023-01-26T03:54:04;11.87;;;11.17;;
17670;SDS011;8954;48.694;8.940;2023-01-26T03:56:48;12.17;;;11.50;;
17670;SDS011;8954;48.694;8.940;2023-01-26T03:59:14;11.77;;;11.10;;
17670;SDS011;8954;48.694;8.940;2023-01-26T04:01:45;11.97;;;11.23;;
17670;SDS011;8954;48.694;8.940;2023-01-26T04:04:30;11.40;;;10.73;;
17670;SDS011;8954;48.694;8.940;2023-01-26T04:07:14;12.33;;;11.53;;
17670;SDS011;8954;48.694;8.940;2023-01-26T04:09:58;12.23;;;11.53;;
17670;SDS011;8954;48.694;8.940;2023-01-26T04:12:24;11.50;;;10.83;;
17670;SDS011;8954;48.694;8.940;2023-01-26T04:14:49;12.30;;;11.60;;
17670;SDS011;8954;48.694;8.940;2023-01-26T04:17:34;11.83;;;11.13;;
17670;SDS011;8954;48.694;8.940;2023-01-26T04:20:18;12.63;;;11.93;;
17670;SDS011;8954;48.694;8.940;2023-01-26T04:23:02;11.93;;;11.17;;
17670;SDS011;8954;48.694;8.940;2023-01-26T04:25:28;11.10;;;10.50;;
17670;SDS011;8954;48.694;8.940;2023-01-26T04:27:53;11.33;;;10.70;;
17670;SDS011;8954;48.694;8.940;2023-01-26T04:30:19;10.80;;;10.20;;
17670;SDS011;8954;48.694;8.940;2023-01-26T04:32:44;10.70;;;10.10;;
17670;SDS011;8954;48.694;8.940;2023-01-26T04:35:10;10.30;;;9.73;;
17670;SDS011;8954;48.694;8.940;2023-01-26T04:37:37;10.57;;;10.00;;
17670;SDS011;8954;48.694;8.940;2023-01-26T04:40:03;9.90;;;9.40;;
17670;SDS011;8954;48.694;8.940;2023-01-26T04:42:29;10.23;;;9.73;;
17670;SDS011;8954;48.694;8.940;2023-01-26T04:44:55;9.90;;;9.40;;
17670;SDS011;8954;48.694;8.940;2023-01-26T04:47:21;9.73;;;9.23;;
17670;SDS011;8954;48.694;8.940;2023-01-26T04:49:46;9.97;;;9.47;;
17670;SDS011;8954;48.694;8.940;2023-01-26T04:52:12;10.33;;;9.73;;
17670;SDS011;8954;48.694;8.940;2023-01-26T04:54:38;9.63;;;9.13;;
17670;SDS011;8954;48.694;8.940;2023-01-26T04:57:04;9.27;;;8.77;;
17670;SDS011;8954;48.694;8.940;2023-01-26T04:59:30;10.20;;;9.60;;
17670;SDS011;8954;48.694;8.940;2023-01-26T05:01:56;9.27;;;8.87;;
17670;SDS011;8954;48.694;8.940;2023-01-26T05:04:21;9.53;;;9.03;;
17670;SDS011;8954;48.694;8.940;2023-01-26T05:06:47;9.47;;;8.97;;
17670;SDS011;8954;48.694;8.940;2023-01-26T05:09:12;8.30;;;7.90;;
17670;SDS011;8954;48.694;8.940;2023-01-26T05:11:38;8.23;;;7.83;;
17670;SDS011;8954;48.694;8.940;2023-01-26T05:14:03;9.03;;;8.57;;
17670;SDS011;8954;48.694;8.940;2023-01-26T05:16:29;9.03;;;8.53;;
17670;SDS011;8954;48.694;8.940;2023-01-26T05:18:54;9.07;;;8.63;;
17670;SDS011;8954;48.694;8.940;2023-01-26T05:21:20;8.57;;;8.17;;
17670;SDS011;8954;48.694;8.940;2023-01-26T05:23:48;9.30;;;8.70;;
17670;SDS011;8954;48.694;8.940;2023-01-26T05:26:14;10.07;;;9.50;;
17670;SDS011;8954;48.694;8.940;2023-01-26T05:28:40;8.23;;;7.83;;
17670;SDS011;8954;48.694;8.940;2023-01-26T05:31:05;8.83;;;8.33;;
17670;SDS011;8954;48.694;8.940;2023-01-26T05:33:31;8.47;;;8.07;;
17670;SDS011;8954;48.694;8.940;2023-01-26T05:35:56;8.37;;;7.97;;
17670;SDS011;8954;48.694;8.940;2023-01-26T05:38:22;9.30;;;8.80;;
17670;SDS011;8954;48.694;8.940;2023-01-26T05:40:48;8.73;;;8.33;;
17670;SDS011;8954;48.694;8.940;2023-01-26T05:43:13;8.40;;;8.00;;
17670;SDS011;8954;48.694;8.940;2023-01-26T05:45:39;8.83;;;8.43;;
17670;SDS011;8954;48.694;8.940;2023-01-26T05:48:04;8.73;;;8.33;;
17670;SDS011;8954;48.694;8.940;2023-01-26T05:50:31;8.97;;;8.53;;
17670;SDS011;8954;48.694;8.940;2023-01-26T05:52:56;9.57;;;9.07;;
17670;SDS011;8954;48.694;8.940;2023-01-26T05:55:24;9.83;;;9.33;;
17670;SDS011;8954;48.694;8.940;2023-01-26T05:57:50;9.40;;;8.90;;
17670;SDS011;8954;48.694;8.940;2023-01-26T06:00:16;8.43;;;8.03;;
17670;SDS011;8954;48.694;8.940;2023-01-26T06:02:42;8.47;;;8.07;;
17670;SDS011;8954;48.694;8.940;2023-01-26T06:05:08;9.17;;;8.67;;
17670;SDS011;8954;48.694;8.940;2023-01-26T06:07:34;10.00;;;9.40;;
17670;SDS011;8954;48.694;8.940;2023-01-26T06:10:00;9.93;;;9.33;;
17670;SDS011;8954;48.694;8.940;2023-01-26T06:12:26;10.20;;;9.67;;
17670;SDS011;8954;48.694;8.940;2023-01-26T06:14:59;9.93;;;9.40;;
17670;SDS011;8954;48.694;8.940;2023-01-26T06:17:26;10.27;;;9.73;;
17670;SDS011;8954;48.694;8.940;2023-01-26T06:19:51;10.33;;;9.80;;
17670;SDS011;8954;48.694;8.940;2023-01-26T06:22:17;11.07;;;10.43;;
17670;SDS011;8954;48.694;8.940;2023-01-26T06:24:42;10.70;;;10.10;;
17670;SDS011;8954;48.694;8.940;2023-01-26T06:27:11;11.53;;;10.90;;
17670;SDS011;8954;48.694;8.940;2023-01-26T06:29:39;12.10;;;11.30;;
17670;SDS011;8954;48.694;8.940;2023-01-26T06:32:05;11.47;;;10.87;;
17670;SDS011;8954;48.694;8.940;2023-01-26T06:34:31;11.53;;;10.87;;
17670;SDS011;8954;48.694;8.940;2023-01-26T06:36:57;11.70;;;11.03;;
17670;SDS011;8954;48.694;8.940;2023-01-26T06:39:23;11.77;;;11.13;;
17670;SDS011;8954;48.694;8.940;2023-01-26T06:41:49;12.60;;;11.83;;
17670;SDS011;8954;48.694;8.940;2023-01-26T06:44:14;13.23;;;12.37;;
17670;SDS011;8954;48.694;8.940;2023-01-26T06:46:40;12.63;;;11.83;;
17670;SDS011;8954;48.694;8.940;2023-01-26T06:49:05;13.07;;;12.30;;
17670;SDS011;8954;48.694;8.940;2023-01-26T06:54:18;12.90;;;12.17;;
17670;SDS011;8954;48.694;8.940;2023-01-26T06:56:43;13.33;;;12.60;;
17670;SDS011;8954;48.694;8.940;2023-01-26T06:59:09;13.37;;;12.53;;
17670;SDS011;8954;48.694;8.940;2023-01-26T07:01:36;12.80;;;12.00;;
17670;SDS011;8954;48.694;8.940;2023-01-26T07:04:03;13.53;;;12.73;;
17670;SDS011;8954;48.694;8.940;2023-01-26T07:06:29;13.70;;;12.80;;
17670;SDS011;8954;48.694;8.940;2023-01-26T07:08:54;14.20;;;13.30;;
17670;SDS011;8954;48.694;8.940;2023-01-26T07:11:29;13.40;;;12.60;;
17670;SDS011;8954;48.694;8.940;2023-01-26T07:13:56;13.47;;;12.67;;
17670;SDS011;8954;48.694;8.940;2023-01-26T07:16:22;13.07;;;12.27;;
17670;SDS011;8954;48.694;8.940;2023-01-26T07:18:48;13.27;;;12.47;;
17670;SDS011;8954;48.694;8.940;2023-01-26T07:21:17;12.93;;;12.23;;
17670;SDS011;8954;48.694;8.940;2023-01-26T07:23:43;13.20;;;12.47;;
17670;SDS011;8954;48.694;8.940;2023-01-26T07:26:09;12.97;;;12.27;;
17670;SDS011;8954;48.694;8.940;2023-01-26T07:28:35;13.33;;;12.57;;
17670;SDS011;8954;48.694;8.940;2023-01-26T07:31:02;12.90;;;12.20;;
17670;SDS011;8954;48.694;8.940;2023-01-26T07:33:28;13.40;;;12.63;;
17670;SDS011;8954;48.694;8.940;2023-01-26T07:35:55;12.27;;;11.53;;
17670;SDS011;8954;48.694;8.940;2023-01-26T07:38:22;12.63;;;11.90;;
17670;SDS011;8954;48.694;8.940;2023-01-26T07:40:48;12.93;;;12.27;;
17670;SDS011;8954;48.694;8.940;2023-01-26T07:43:14;12.70;;;12.00;;
17670;SDS011;8954;48.694;8.940;2023-01-26T07:45:47;11.97;;;11.23;;
17670;SDS011;8954;48.694;8.940;2023-01-26T07:48:15;12.93;;;12.23;;
17670;SDS011;8954;48.694;8.940;2023-01-26T07:50:42;12.43;;;11.70;;
17670;SDS011;8954;48.694;8.940;2023-01-26T07:53:09;13.07;;;12.27;;
17670;SDS011;8954;48.694;8.940;2023-01-26T07:55:37;13.50;;;12.70;;
17670;SDS011;8954;48.694;8.940;2023-01-26T07:58:02;12.57;;;11.80;;
17670;SDS011;8954;48.694;8.940;2023-01-26T08:00:28;12.43;;;11.70;;
17670;SDS011;8954;48.694;8.940;2023-01-26T08:02:55;8.95;;;8.52;;
17670;SDS011;8954;48.694;8.940;2023-01-26T08:05:20;8.00;;;7.70;;
17670;SDS011;8954;48.694;8.940;2023-01-26T08:07:46;9.40;;;9.00;;
17670;SDS011;8954;48.694;8.940;2023-01-26T08:10:12;11.47;;;10.87;;
17670;SDS011;8954;48.694;8.940;2023-01-26T08:12:38;9.80;;;9.32;;
17670;SDS011;8954;48.694;8.940;2023-01-26T08:15:04;10.93;;;10.40;;
17670;SDS011;8954;48.694;8.940;2023-01-26T08:17:30;11.97;;;11.30;;
17670;SDS011;8954;48.694;8.940;2023-01-26T08:19:57;11.27;;;10.67;;
17670;SDS011;8954;48.694;8.940;2023-01-26T08:22:23;11.57;;;10.90;;
17670;SDS011;8954;48.694;8.940;2023-01-26T08:24:49;12.10;;;11.50;;
17670;SDS011;8954;48.694;8.940;2023-01-26T08:27:14;12.57;;;11.87;;
17670;SDS011;8954;48.694;8.940;2023-01-26T08:29:41;7.38;;;7.18;;
17670;SDS011;8954;48.694;8.940;2023-01-26T08:32:06;9.33;;;8.93;;
17670;SDS011;8954;48.694;8.940;2023-01-26T08:34:33;10.57;;;10.07;;
17670;SDS011;8954;48.694;8.940;2023-01-26T08:36:58;9.43;;;9.02;;
17670;SDS011;8954;48.694;8.940;2023-01-26T08:39:24;7.10;;;6.90;;
17670;SDS011;8954;48.694;8.940;2023-01-26T08:41:49;8.50;;;8.20;;
17670;SDS011;8954;48.694;8.940;2023-01-26T08:44:15;10.87;;;10.30;;
17670;SDS011;8954;48.694;8.940;2023-01-26T08:46:42;10.67;;;10.17;;
17670;SDS011;8954;48.694;8.940;2023-01-26T08:49:08;11.00;;;10.40;;
17670;SDS011;8954;48.694;8.940;2023-01-26T08:51:33;10.90;;;10.33;;
17670;SDS011;8954;48.694;8.940;2023-01-26T08:53:59;10.60;;;10.10;;
17670;SDS011;8954;48.694;8.940;2023-01-26T08:56:24;11.90;;;11.23;;
17670;SDS011;8954;48.694;8.940;2023-01-26T08:58:50;11.50;;;10.80;;
17670;SDS011;8954;48.694;8.940;2023-01-26T09:01:16;10.63;;;10.13;;
17670;SDS011;8954;48.694;8.940;2023-01-26T09:03:42;11.27;;;10.67;;
17670;SDS011;8954;48.694;8.940;2023-01-26T09:06:09;11.67;;;11.03;;
17670;SDS011;8954;48.694;8.940;2023-01-26T09:08:37;12.00;;;11.30;;
17670;SDS011;8954;48.694;8.940;2023-01-26T09:11:06;10.57;;;10.00;;
17670;SDS011;8954;48.694;8.940;2023-01-26T09:13:32;11.30;;;10.70;;
17670;SDS011;8954;48.694;8.940;2023-01-26T09:15:58;10.67;;;10.13;;
17670;SDS011;8954;48.694;8.940;2023-01-26T09:18:27;10.57;;;10.07;;
17670;SDS011;8954;48.694;8.940;2023-01-26T09:20:53;10.30;;;9.80;;
17670;SDS011;8954;48.694;8.940;2023-01-26T09:23:19;10.80;;;10.20;;
17670;SDS011;8954;48.694;8.940;2023-01-26T09:25:45;10.33;;;9.77;;
17670;SDS011;8954;48.694;8.940;2023-01-26T09:28:16;10.20;;;9.67;;
17670;SDS011;8954;48.694;8.940;2023-01-26T09:30:41;9.73;;;9.23;;
17670;SDS011;8954;48.694;8.940;2023-01-26T09:33:07;10.63;;;10.13;;
17670;SDS011;8954;48.694;8.940;2023-01-26T09:35:32;10.47;;;9.97;;
17670;SDS011;8954;48.694;8.940;2023-01-26T09:37:58;10.03;;;9.53;;
17670;SDS011;8954;48.694;8.940;2023-01-26T09:45:50;9.80;;;9.30;;
17670;SDS011;8954;48.694;8.940;2023-01-26T09:51:24;10.03;;;9.53;;
17670;SDS011;8954;48.694;8.940;2023-01-26T09:53:58;9.53;;;9.03;;
17670;SDS011;8954;48.694;8.940;2023-01-26T09:56:29;9.97;;;9.47;;
17670;SDS011;8954;48.694;8.940;2023-01-26T10:01:49;9.23;;;8.80;;
17670;SDS011;8954;48.694;8.940;2023-01-26T10:06:57;9.80;;;9.27;;
17670;SDS011;8954;48.694;8.940;2023-01-26T10:09:26;9.53;;;9.10;;
17670;SDS011;8954;48.694;8.940;2023-01-26T10:11:57;8.87;;;8.37;;
17670;SDS011;8954;48.694;8.940;2023-01-26T10:14:36;8.83;;;8.40;;
17670;SDS011;8954;48.694;8.940;2023-01-26T10:20:24;9.50;;;9.00;;
17670;SDS011;8954;48.694;8.940;2023-01-26T10:23:04;9.43;;;8.93;;
17670;SDS011;8954;48.694;8.940;2023-01-26T10:25:40;8.93;;;8.53;;
17670;SDS011;8954;48.694;8.940;2023-01-26T10:28:14;8.93;;;8.53;;
17670;SDS011;8954;48.694;8.940;2023-01-26T10:30:41;9.73;;;9.23;;
17670;SDS011;8954;48.694;8.940;2023-01-26T10:33:15;9.13;;;8.73;;
17670;SDS011;8954;48.694;8.940;2023-01-26T10:35:43;9.70;;;9.17;;
17670;SDS011;8954;48.694;8.940;2023-01-26T10:38:25;9.33;;;8.87;;
17670;SDS011;8954;48.694;8.940;2023-01-26T10:40:51;9.90;;;9.40;;
17670;SDS011;8954;48.694;8.940;2023-01-26T10:43:16;9.37;;;8.93;;
17670;SDS011;8954;48.694;8.940;2023-01-26T10:45:46;9.50;;;9.07;;
17670;SDS011;8954;48.694;8.940;2023-01-26T10:50:42;9.53;;;9.03;;
17670;SDS011;8954;48.694;8.940;2023-01-26T10:53:29;10.03;;;9.53;;
17670;SDS011;8954;48.694;8.940;2023-01-26T10:58:42;9.87;;;9.37;;
17670;SDS011;8954;48.694;8.940;2023-01-26T11:01:08;9.50;;;9.00;;
17670;SDS011;8954;48.694;8.940;2023-01-26T11:03:36;9.23;;;8.77;;
17670;SDS011;8954;48.694;8.940;2023-01-26T11:06:16;9.90;;;9.40;;
17670;SDS011;8954;48.694;8.940;2023-01-26T11:08:42;10.00;;;9.50;;
17670;SDS011;8954;48.694;8.940;2023-01-26T11:11:24;10.10;;;9.50;;
17670;SDS011;8954;48.694;8.940;2023-01-26T11:14:08;10.70;;;10.10;;
17670;SDS011;8954;48.694;8.940;2023-01-26T11:16:36;10.80;;;10.17;;
17670;SDS011;8954;48.694;8.940;2023-01-26T11:19:06;10.30;;;9.80;;
17670;SDS011;8954;48.694;8.940;2023-01-26T11:35:21;10.40;;;9.87;;
17670;SDS011;8954;48.694;8.940;2023-01-26T11:40:46;10.23;;;9.63;;
17670;SDS011;8954;48.694;8.940;2023-01-26T11:48:54;11.10;;;10.53;;
17670;SDS011;8954;48.694;8.940;2023-01-26T11:51:36;11.33;;;10.70;;
17670;SDS011;8954;48.694;8.940;2023-01-26T12:02:35;11.50;;;10.90;;
17670;SDS011;8954;48.694;8.940;2023-01-26T12:05:14;11.27;;;10.67;;
17670;SDS011;8954;48.694;8.940;2023-01-26T12:08:04;11.73;;;11.10;;
17670;SDS011;8954;48.694;8.940;2023-01-26T12:13:46;11.93;;;11.27;;
17670;SDS011;8954;48.694;8.940;2023-01-26T12:16:54;12.27;;;11.57;;
17670;SDS011;8954;48.694;8.940;2023-01-26T12:19:38;12.60;;;11.80;;
17670;SDS011;8954;48.694;8.940;2023-01-26T12:22:24;12.70;;;11.90;;
17670;SDS011;8954;48.694;8.940;2023-01-26T12:24:56;12.20;;;11.50;;
17670;SDS011;8954;48.694;8.940;2023-01-26T12:27:28;12.87;;;12.07;;
17670;SDS011;8954;48.694;8.940;2023-01-26T12:30:05;12.03;;;11.33;;
17670;SDS011;8954;48.694;8.940;2023-01-26T12:32:45;12.10;;;11.40;;
17670;SDS011;8954;48.694;8.940;2023-01-26T12:35:10;11.57;;;10.87;;
17670;SDS011;8954;48.694;8.940;2023-01-26T12:37:49;11.10;;;10.50;;
17670;SDS011;8954;48.694;8.940;2023-01-26T12:40:29;10.93;;;10.33;;
17670;SDS011;8954;48.694;8.940;2023-01-26T12:46:22;11.57;;;10.87;;
17670;SDS011;8954;48.694;8.940;2023-01-26T12:48:55;11.20;;;10.60;;
17670;SDS011;8954;48.694;8.940;2023-01-26T12:51:36;10.40;;;9.80;;
17670;SDS011;8954;48.694;8.940;2023-01-26T12:54:28;11.27;;;10.67;;
17670;SDS011;8954;48.694;8.940;2023-01-26T12:57:13;11.83;;;11.20;;
17670;SDS011;8954;48.694;8.940;2023-01-26T12:59:44;12.17;;;11.43;;
17670;SDS011;8954;48.694;8.940;2023-01-26T13:02:18;7.43;;;7.17;;
17670;SDS011;8954;48.694;8.940;2023-01-26T13:04:52;6.50;;;6.30;;
17670;SDS011;8954;48.694;8.940;2023-01-26T13:10:06;9.10;;;8.70;;
17670;SDS011;8954;48.694;8.940;2023-01-26T13:15:15;9.00;;;8.60;;
17670;SDS011;8954;48.694;8.940;2023-01-26T13:17:47;10.43;;;9.93;;
17670;SDS011;8954;48.694;8.940;2023-01-26T13:20:21;11.53;;;10.90;;
17670;SDS011;8954;48.694;8.940;2023-01-26T13:22:49;11.53;;;10.93;;
17670;SDS011;8954;48.694;8.940;2023-01-26T13:25:16;11.37;;;10.80;;
17670;SDS011;8954;48.694;8.940;2023-01-26T13:27:59;12.20;;;11.50;;
17670;SDS011;8954;48.694;8.940;2023-01-26T13:33:09;11.80;;;11.10;;
17670;SDS011;8954;48.694;8.940;2023-01-26T13:35:41;13.80;;;13.00;;
17670;SDS011;8954;48.694;8.940;2023-01-26T13:40:44;10.93;;;10.33;;
17670;SDS011;8954;48.694;8.940;2023-01-26T13:46:05;12.07;;;11.27;;
17670;SDS011;8954;48.694;8.940;2023-01-26T13:51:19;11.00;;;10.40;;
17670;SDS011;8954;48.694;8.940;2023-01-26T13:54:12;10.87;;;10.27;;
17670;SDS011;8954;48.694;8.940;2023-01-26T13:56:40;11.47;;;10.80;;
17670;SDS011;8954;48.694;8.940;2023-01-26T13:59:11;10.93;;;10.33;;
17670;SDS011;8954;48.694;8.940;2023-01-26T14:01:42;10.80;;;10.20;;
17670;SDS011;8954;48.694;8.940;2023-01-26T14:04:14;10.73;;;10.10;;
17670;SDS011;8954;48.694;8.940;2023-01-26T14:06:45;10.70;;;10.03;;
17670;SDS011;8954;48.694;8.940;2023-01-26T14:09:24;11.23;;;10.60;;
17670;SDS011;8954;48.694;8.940;2023-01-26T14:11:58;10.50;;;9.93;;
17670;SDS011;8954;48.694;8.940;2023-01-26T14:14:27;10.90;;;10.20;;
17670;SDS011;8954;48.694;8.940;2023-01-26T14:16:56;7.57;;;7.35;;
17670;SDS011;8954;48.694;8.940;2023-01-26T14:19:22;7.67;;;7.37;;
17670;SDS011;8954;48.694;8.940;2023-01-26T14:21:52;8.43;;;8.07;;
17670;SDS011;8954;48.694;8.940;2023-01-26T14:26:58;6.70;;;6.50;;
17670;SDS011;8954;48.694;8.940;2023-01-26T14:29:25;8.33;;;8.00;;
17670;SDS011;8954;48.694;8.940;2023-01-26T14:31:53;9.53;;;9.03;;
17670;SDS011;8954;48.694;8.940;2023-01-26T14:34:24;10.57;;;10.00;;
17670;SDS011;8954;48.694;8.940;2023-01-26T14:37:04;9.83;;;9.33;;
17670;SDS011;8954;48.694;8.940;2023-01-26T14:39:31;10.93;;;10.30;;
17670;SDS011;8954;48.694;8.940;2023-01-26T14:41:58;11.13;;;10.53;;
17670;SDS011;8954;48.694;8.940;2023-01-26T14:44:24;11.23;;;10.60;;
17670;SDS011;8954;48.694;8.940;2023-01-26T14:47:00;11.97;;;11.27;;
17670;SDS011;8954;48.694;8.940;2023-01-26T14:49:55;11.83;;;11.10;;
17670;SDS011;8954;48.694;8.940;2023-01-26T14:52:26;11.90;;;11.27;;
17670;SDS011;8954;48.694;8.940;2023-01-26T14:54:55;10.43;;;9.90;;
17670;SDS011;8954;48.694;8.940;2023-01-26T14:57:24;11.40;;;10.80;;
17670;SDS011;8954;48.694;8.940;2023-01-26T14:59:53;11.20;;;10.60;;
17670;SDS011;8954;48.694;8.940;2023-01-26T15:02:21;11.00;;;10.40;;
17670;SDS011;8954;48.694;8.940;2023-01-26T15:04:54;11.00;;;10.40;;
17670;SDS011;8954;48.694;8.940;2023-01-26T15:08:23;5.90;;;5.70;;
17670;SDS011;8954;48.694;8.940;2023-01-26T15:10:29;7.83;;;7.43;;
17670;SDS011;8954;48.694;8.940;2023-01-26T15:13:45;10.10;;;9.50;;
17670;SDS011;8954;48.694;8.940;2023-01-26T15:16:23;10.80;;;10.10;;
17670;SDS011;8954;48.694;8.940;2023-01-26T15:19:00;9.83;;;9.33;;
17670;SDS011;8954;48.694;8.940;2023-01-26T15:21:32;5.90;;;5.70;;
17670;SDS011;8954;48.694;8.940;2023-01-26T15:24:04;9.27;;;8.80;;
17670;SDS011;8954;48.694;8.940;2023-01-26T15:26:34;9.97;;;9.40;;
17670;SDS011;8954;48.694;8.940;2023-01-26T15:29:04;10.20;;;9.60;;
17670;SDS011;8954;48.694;8.940;2023-01-26T15:31:40;10.47;;;9.87;;
17670;SDS011;8954;48.694;8.940;2023-01-26T15:34:27;10.63;;;10.03;;
17670;SDS011;8954;48.694;8.940;2023-01-26T15:36:53;5.82;;;5.63;;
17670;SDS011;8954;48.694;8.940;2023-01-26T15:39:21;5.82;;;5.63;;
17670;SDS011;8954;48.694;8.940;2023-01-26T15:44:34;8.67;;;8.27;;
17670;SDS011;8954;48.694;8.940;2023-01-26T15:46:59;10.30;;;9.70;;
17670;SDS011;8954;48.694;8.940;2023-01-26T15:49:25;10.50;;;9.83;;
17670;SDS011;8954;48.694;8.940;2023-01-26T15:51:50;10.70;;;10.00;;
17670;SDS011;8954;48.694;8.940;2023-01-26T15:54:16;10.93;;;10.23;;
17670;SDS011;8954;48.694;8.940;2023-01-26T15:56:41;5.70;;;5.50;;
17670;SDS011;8954;48.694;8.940;2023-01-26T15:59:07;7.10;;;6.80;;
17670;SDS011;8954;48.694;8.940;2023-01-26T16:01:32;9.20;;;8.70;;
17670;SDS011;8954;48.694;8.940;2023-01-26T16:03:58;9.20;;;8.70;;
17670;SDS011;8954;48.694;8.940;2023-01-26T16:06:25;10.27;;;9.67;;
17670;SDS011;8954;48.694;8.940;2023-01-26T16:08:53;10.73;;;10.10;;
17670;SDS011;8954;48.694;8.940;2023-01-26T16:11:19;9.43;;;8.87;;
17670;SDS011;8954;48.694;8.940;2023-01-26T16:13:46;10.63;;;10.00;;
17670;SDS011;8954;48.694;8.940;2023-01-26T16:16:13;10.40;;;9.80;;
17670;SDS011;8954;48.694;8.940;2023-01-26T16:18:40;10.73;;;10.13;;
17670;SDS011;8954;48.694;8.940;2023-01-26T16:21:13;9.80;;;9.30;;
17670;SDS011;8954;48.694;8.940;2023-01-26T16:23:41;7.85;;;7.57;;
17670;SDS011;8954;48.694;8.940;2023-01-26T16:26:08;6.57;;;6.33;;
17670;SDS011;8954;48.694;8.940;2023-01-26T16:28:35;7.90;;;7.50;;